createdAt,value
2018-12-30T00:03:59.146Z,9.40
2018-12-30T00:09:01.793Z,9.70
2018-12-30T00:14:05.371Z,9.97
2018-12-30T00:19:07.282Z,9.90
2018-12-30T00:24:09.310Z,10.13
2018-12-30T00:29:11.319Z,10.13
2018-12-30T00:34:13.238Z,10.23
2018-12-30T00:39:15.256Z,11.10
2018-12-30T00:44:17.210Z,11.87
2018-12-30T00:49:19.124Z,11.77
2018-12-30T00:54:21.320Z,10.83
2018-12-30T00:59:23.227Z,12.47
2018-12-30T01:04:25.311Z,12.80
2018-12-30T01:09:27.205Z,13.60
2018-12-30T01:14:29.109Z,13.80
2018-12-30T01:19:31.330Z,14.47
2018-12-30T01:24:33.326Z,16.13
2018-12-30T01:29:35.415Z,16.70
2018-12-30T01:34:37.466Z,16.07
2018-12-30T01:39:39.392Z,14.53
2018-12-30T01:44:41.294Z,13.53
2018-12-30T01:49:43.397Z,13.43
2018-12-30T01:54:45.317Z,9.80
2018-12-30T01:59:48.215Z,10.53
2018-12-30T02:04:50.352Z,9.73
2018-12-30T02:09:52.254Z,6.53
2018-12-30T02:14:54.464Z,6.30
2018-12-30T02:19:56.380Z,4.50
2018-12-30T02:24:58.444Z,3.17
2018-12-30T02:30:00.358Z,2.70
2018-12-30T02:35:02.562Z,2.47
2018-12-30T02:40:04.662Z,2.67
2018-12-30T02:45:06.697Z,2.80
2018-12-30T02:50:08.873Z,2.33
2018-12-30T02:55:10.781Z,2.20
2018-12-30T03:00:12.886Z,2.70
2018-12-30T03:05:14.852Z,2.50
2018-12-30T03:10:16.749Z,2.10
2018-12-30T03:15:18.774Z,2.10
2018-12-30T03:20:20.825Z,1.20
2018-12-30T03:25:22.769Z,0.80
2018-12-30T03:36:37.371Z,0.90
2018-12-30T03:41:39.421Z,1.10
2018-12-30T03:46:41.322Z,1.30
2018-12-30T03:51:43.276Z,1.03
2018-12-30T03:56:45.286Z,1.40
2018-12-30T04:01:47.196Z,1.50
2018-12-30T04:06:49.396Z,2.10
2018-12-30T04:11:51.313Z,2.10
2018-12-30T04:16:53.205Z,2.00
2018-12-30T04:21:55.238Z,2.60
2018-12-30T04:26:57.230Z,2.57
2018-12-30T04:31:59.132Z,2.67
2018-12-30T04:37:01.131Z,2.40
2018-12-30T04:42:03.247Z,2.60
2018-12-30T04:47:05.297Z,2.70
2018-12-30T04:52:07.355Z,2.20
2018-12-30T04:57:09.385Z,2.80
2018-12-30T05:02:11.271Z,2.87
2018-12-30T05:07:13.306Z,3.40
2018-12-30T05:12:15.221Z,2.73
2018-12-30T05:17:17.330Z,3.20
2018-12-30T05:22:19.243Z,3.60
2018-12-30T05:27:21.180Z,3.23
2018-12-30T05:32:23.083Z,2.63
2018-12-30T05:37:25.019Z,3.43
2018-12-30T05:42:26.942Z,2.87
2018-12-30T05:47:28.860Z,3.37
2018-12-30T05:52:30.884Z,2.90
2018-12-30T05:57:32.799Z,2.80
2018-12-30T06:02:34.782Z,2.83
2018-12-30T06:07:36.700Z,3.27
2018-12-30T06:12:38.607Z,2.27
2018-12-30T06:17:40.551Z,2.03
2018-12-30T06:22:49.304Z,2.67
2018-12-30T06:27:46.341Z,2.60
2018-12-30T06:32:50.143Z,2.80
2018-12-30T06:37:55.174Z,2.73
2018-12-30T06:42:57.084Z,2.87
2018-12-30T06:47:59.019Z,2.87
2018-12-30T06:53:00.933Z,3.20
2018-12-30T06:58:02.871Z,2.93
2018-12-30T07:03:04.784Z,3.00
2018-12-30T07:08:06.703Z,3.20
2018-12-30T07:13:08.639Z,3.93
2018-12-30T07:18:10.707Z,4.10
2018-12-30T07:23:12.628Z,3.50
2018-12-30T07:28:14.613Z,3.80
2018-12-30T07:33:16.552Z,3.73
2018-12-30T07:38:18.459Z,4.30
2018-12-30T07:43:20.421Z,4.03
2018-12-30T07:48:22.327Z,3.90
2018-12-30T07:53:24.242Z,5.40
2018-12-30T07:58:26.527Z,5.83
2018-12-30T08:03:28.574Z,3.90
2018-12-30T08:08:30.594Z,4.23
2018-12-30T08:13:33.049Z,4.00
2018-12-30T08:18:34.968Z,3.93
2018-12-30T08:23:37.219Z,3.60
2018-12-30T08:28:57.840Z,3.83
2018-12-30T08:33:59.754Z,4.17
2018-12-30T08:39:03.975Z,3.90
2018-12-30T08:44:05.943Z,4.53
2018-12-30T08:49:07.859Z,3.50
2018-12-30T08:54:09.819Z,3.93
2018-12-30T08:59:11.848Z,3.77
2018-12-30T09:04:13.738Z,3.40
2018-12-30T09:09:15.931Z,3.00
2018-12-30T09:14:17.843Z,3.87
2018-12-30T09:19:19.794Z,3.70
2018-12-30T09:24:21.734Z,4.10
2018-12-30T09:29:23.642Z,3.43
2018-12-30T09:34:25.539Z,4.37
2018-12-30T09:39:27.463Z,3.97
2018-12-30T09:44:29.346Z,3.57
2018-12-30T09:49:31.283Z,3.53
2018-12-30T09:54:33.222Z,4.00
2018-12-30T09:59:35.150Z,3.73
2018-12-30T10:04:37.033Z,2.83
2018-12-30T10:09:38.965Z,3.10
2018-12-30T10:14:40.865Z,2.87
2018-12-30T10:19:43.780Z,3.80
2018-12-30T10:24:45.889Z,6.80
2018-12-30T10:29:49.475Z,6.53
2018-12-30T10:34:51.467Z,4.33
2018-12-30T10:39:53.359Z,4.70
2018-12-30T10:44:55.282Z,4.47
2018-12-30T10:49:59.410Z,4.50
2018-12-30T10:55:01.558Z,4.13
2018-12-30T11:00:04.602Z,4.03
2018-12-30T11:05:06.689Z,4.20
2018-12-30T11:10:08.711Z,2.97
2018-12-30T11:15:10.706Z,3.63
2018-12-30T11:20:12.691Z,3.60
2018-12-30T11:25:14.602Z,4.00
2018-12-30T11:30:17.483Z,3.17
2018-12-30T11:35:19.392Z,3.43
2018-12-30T11:40:21.419Z,2.60
2018-12-30T11:45:23.414Z,3.10
2018-12-30T11:50:25.526Z,2.97
2018-12-30T11:55:27.550Z,2.30
2018-12-30T12:00:29.446Z,2.60
2018-12-30T12:05:31.434Z,2.77
2018-12-30T12:10:33.482Z,2.40
2018-12-30T12:15:35.373Z,3.27
2018-12-30T12:20:37.314Z,3.33
2018-12-30T12:25:39.262Z,2.40
2018-12-30T12:30:41.187Z,3.00
2018-12-30T12:35:43.194Z,2.20
2018-12-30T12:40:45.902Z,2.70
2018-12-30T12:45:47.911Z,2.90
2018-12-30T12:50:49.828Z,3.83
2018-12-30T12:55:51.958Z,3.53
2018-12-30T13:00:53.862Z,3.50
2018-12-30T13:05:55.774Z,2.93
2018-12-30T13:10:57.682Z,2.80
2018-12-30T13:16:03.571Z,3.50
2018-12-30T13:21:03.669Z,2.93
2018-12-30T13:26:06.097Z,3.17
2018-12-30T13:31:08.003Z,3.53
2018-12-30T13:36:11.048Z,3.00
2018-12-30T13:41:12.983Z,3.53
2018-12-30T13:46:14.876Z,3.60
2018-12-30T13:51:16.918Z,3.50
2018-12-30T13:56:18.823Z,3.53
2018-12-30T14:01:20.923Z,3.47
2018-12-30T14:06:22.819Z,2.93
2018-12-30T14:11:25.847Z,3.07
2018-12-30T14:16:27.738Z,2.90
2018-12-30T14:21:30.702Z,3.30
2018-12-30T14:26:34.569Z,3.20
2018-12-30T14:31:36.455Z,2.90
2018-12-30T14:36:38.360Z,2.67
2018-12-30T14:41:40.383Z,2.93
2018-12-30T14:46:42.273Z,4.47
2018-12-30T14:51:44.187Z,3.30
2018-12-30T14:56:46.133Z,3.50
2018-12-30T15:01:48.033Z,3.27
2018-12-30T15:06:49.938Z,3.00
2018-12-30T15:11:51.898Z,3.07
2018-12-30T15:16:53.786Z,3.30
2018-12-30T15:21:56.839Z,3.53
2018-12-30T15:26:58.759Z,3.43
2018-12-30T15:32:00.657Z,4.10
2018-12-30T15:37:02.654Z,3.53
2018-12-30T15:42:04.555Z,4.03
2018-12-30T15:47:06.434Z,3.30
2018-12-30T15:52:08.435Z,3.63
2018-12-30T15:57:10.376Z,3.67
2018-12-30T16:02:12.894Z,2.83
2018-12-30T16:07:15.421Z,3.27
2018-12-30T16:12:17.446Z,3.57
2018-12-30T16:17:19.331Z,3.70
2018-12-30T16:22:21.425Z,3.00
2018-12-30T16:27:23.343Z,3.33
2018-12-30T16:32:25.762Z,2.90
2018-12-30T16:37:27.656Z,3.20
2018-12-30T16:42:29.567Z,3.10
2018-12-30T16:47:31.557Z,3.13
2018-12-30T16:52:33.660Z,2.93
2018-12-30T16:57:35.682Z,3.57
2018-12-30T17:02:37.613Z,3.30
2018-12-30T17:07:39.518Z,2.90
2018-12-30T17:12:41.418Z,3.27
2018-12-30T17:17:43.319Z,3.27
2018-12-30T17:22:45.367Z,3.20
2018-12-30T17:27:47.284Z,2.63
2018-12-30T17:32:49.215Z,3.13
2018-12-30T17:37:51.115Z,3.13
2018-12-30T17:42:53.024Z,4.33
2018-12-30T17:47:54.944Z,3.53
2018-12-30T17:52:56.839Z,3.60
2018-12-30T17:57:59.050Z,3.17
2018-12-30T18:03:00.995Z,2.80
2018-12-30T18:08:04.696Z,2.90
2018-12-30T18:13:06.601Z,3.30
2018-12-30T18:18:08.617Z,3.20
2018-12-30T18:23:10.775Z,3.40
2018-12-30T18:28:12.714Z,3.70
2018-12-30T18:33:14.659Z,3.00
2018-12-30T18:38:16.757Z,3.73
2018-12-30T18:43:18.654Z,3.60
2018-12-30T18:48:20.590Z,3.33
2018-12-30T18:53:22.614Z,3.93
2018-12-30T18:58:24.545Z,3.43
2018-12-30T19:03:26.465Z,4.13
2018-12-30T19:08:28.455Z,3.30
2018-12-30T19:13:30.459Z,4.43
2018-12-30T19:18:32.672Z,5.13
2018-12-30T19:23:34.658Z,5.03
2018-12-30T19:28:36.640Z,5.17
2018-12-30T19:33:38.540Z,4.77
2018-12-30T19:38:40.429Z,4.80
2018-12-30T19:43:42.397Z,4.63
2018-12-30T19:48:44.277Z,4.30
2018-12-30T19:53:46.182Z,4.43
2018-12-30T19:58:48.118Z,4.50
2018-12-30T20:03:50.018Z,4.93
2018-12-30T20:08:52.017Z,4.90
2018-12-30T20:13:53.922Z,4.60
2018-12-30T20:18:55.880Z,6.07
2018-12-30T20:23:57.847Z,5.50
2018-12-30T20:28:59.747Z,6.70
2018-12-30T20:34:01.667Z,5.80
2018-12-30T20:39:06.263Z,6.30
2018-12-30T20:44:08.267Z,6.33
2018-12-30T20:49:10.166Z,5.83
2018-12-30T20:54:12.151Z,6.77
2018-12-30T20:59:14.098Z,7.63
2018-12-30T21:04:15.994Z,3.90
2018-12-30T21:09:17.870Z,4.77
2018-12-30T21:14:19.821Z,6.10
2018-12-30T21:19:21.708Z,5.27
2018-12-30T21:24:23.644Z,3.57
2018-12-30T21:29:25.590Z,3.07
2018-12-30T21:34:27.491Z,3.50
2018-12-30T21:39:29.484Z,4.20
2018-12-30T21:44:31.386Z,8.03
2018-12-30T21:49:33.425Z,13.17
2018-12-30T21:54:35.358Z,12.03
2018-12-30T21:59:37.355Z,11.20
2018-12-30T22:04:39.279Z,9.60
2018-12-30T22:09:43.907Z,10.40
2018-12-30T22:14:46.668Z,9.33
2018-12-30T22:19:48.570Z,9.50
2018-12-30T22:24:50.522Z,9.53
2018-12-30T22:29:52.485Z,9.43
2018-12-30T22:34:54.387Z,9.20
2018-12-30T22:39:56.454Z,8.90
2018-12-30T22:44:58.407Z,8.90
2018-12-30T22:50:00.288Z,8.10
2018-12-30T22:55:02.259Z,8.50
2018-12-30T23:00:07.084Z,7.47
2018-12-30T23:05:10.006Z,8.20
2018-12-30T23:10:12.122Z,8.27
2018-12-30T23:15:14.131Z,8.43
2018-12-30T23:20:16.034Z,8.87
2018-12-30T23:25:18.138Z,8.70
2018-12-30T23:30:20.069Z,9.33
2018-12-30T23:35:22.964Z,8.83
2018-12-30T23:40:25.232Z,8.53
2018-12-30T23:45:27.251Z,8.10
2018-12-30T23:50:29.130Z,8.60
2018-12-30T23:55:31.181Z,7.73
